sensor_id;sensor_type;location;lat;lon;timestamp;temperature;humidity
4908;DHT22;64375;51.540;7.364;2024-02-15T00:01:50;16.90;99.90
4908;DHT22;64375;51.540;7.364;2024-02-15T00:04:20;16.90;99.90
4908;DHT22;64375;51.540;7.364;2024-02-15T00:06:48;16.90;99.90
4908;DHT22;64375;51.540;7.364;2024-02-15T00:09:16;16.90;99.90
4908;DHT22;64375;51.540;7.364;2024-02-15T00:11:45;16.90;99.90
4908;DHT22;64375;51.540;7.364;2024-02-15T00:14:24;16.90;99.90
4908;DHT22;64375;51.540;7.364;2024-02-15T00:16:52;16.90;99.90
4908;DHT22;64375;51.540;7.364;2024-02-15T00:19:21;16.80;99.90
4908;DHT22;64375;51.540;7.364;2024-02-15T00:21:50;16.80;99.90
4908;DHT22;64375;51.540;7.364;2024-02-15T00:24:27;16.80;99.90
4908;DHT22;64375;51.540;7.364;2024-02-15T00:26:57;16.80;99.90
4908;DHT22;64375;51.540;7.364;2024-02-15T00:29:28;16.80;99.90
4908;DHT22;64375;51.540;7.364;2024-02-15T00:31:56;16.80;99.90
4908;DHT22;64375;51.540;7.364;2024-02-15T00:34:26;16.80;99.90
4908;DHT22;64375;51.540;7.364;2024-02-15T00:36:57;16.80;99.90
4908;DHT22;64375;51.540;7.364;2024-02-15T00:39:37;16.80;99.90
4908;DHT22;64375;51.540;7.364;2024-02-15T00:42:05;16.90;99.90
4908;DHT22;64375;51.540;7.364;2024-02-15T00:44:36;16.80;99.90
4908;DHT22;64375;51.540;7.364;2024-02-15T00:47:07;16.90;99.90
4908;DHT22;64375;51.540;7.364;2024-02-15T00:49:36;16.80;99.90
4908;DHT22;64375;51.540;7.364;2024-02-15T00:52:10;16.80;99.90
4908;DHT22;64375;51.540;7.364;2024-02-15T00:54:44;16.80;99.90
4908;DHT22;64375;51.540;7.364;2024-02-15T00:57:18;16.80;99.90
4908;DHT22;64375;51.540;7.364;2024-02-15T00:59:49;16.80;99.90
4908;DHT22;64375;51.540;7.364;2024-02-15T01:02:21;16.80;99.90
4908;DHT22;64375;51.540;7.364;2024-02-15T01:04:57;16.80;99.90
4908;DHT22;64375;51.540;7.364;2024-02-15T01:07:34;16.80;99.90
4908;DHT22;64375;51.540;7.364;2024-02-15T01:10:12;16.80;99.90
4908;DHT22;64375;51.540;7.364;2024-02-15T01:12:45;16.80;99.90
4908;DHT22;64375;51.540;7.364;2024-02-15T01:15:19;16.80;99.90
4908;DHT22;64375;51.540;7.364;2024-02-15T01:17:50;16.80;99.90
4908;DHT22;64375;51.540;7.364;2024-02-15T01:20:25;16.80;99.90
4908;DHT22;64375;51.540;7.364;2024-02-15T01:22:59;16.80;99.90
4908;DHT22;64375;51.540;7.364;2024-02-15T01:25:27;16.80;99.90
4908;DHT22;64375;51.540;7.364;2024-02-15T01:27:58;16.80;99.90
4908;DHT22;64375;51.540;7.364;2024-02-15T01:30:29;16.70;99.90
4908;DHT22;64375;51.540;7.364;2024-02-15T01:32:58;16.70;99.90
4908;DHT22;64375;51.540;7.364;2024-02-15T01:35:28;16.60;99.90
4908;DHT22;64375;51.540;7.364;2024-02-15T01:37:56;16.60;99.90
4908;DHT22;64375;51.540;7.364;2024-02-15T01:40:24;16.60;99.90
4908;DHT22;64375;51.540;7.364;2024-02-15T01:42:52;16.70;99.90
4908;DHT22;64375;51.540;7.364;2024-02-15T01:45:25;16.60;99.90
4908;DHT22;64375;51.540;7.364;2024-02-15T01:48:01;16.60;99.90
4908;DHT22;64375;51.540;7.364;2024-02-15T01:50:36;16.60;99.90
4908;DHT22;64375;51.540;7.364;2024-02-15T01:53:05;16.60;99.90
4908;DHT22;64375;51.540;7.364;2024-02-15T01:55:37;16.60;99.90
4908;DHT22;64375;51.540;7.364;2024-02-15T01:58:06;16.70;99.90
4908;DHT22;64375;51.540;7.364;2024-02-15T02:00:38;16.80;99.90
4908;DHT22;64375;51.540;7.364;2024-02-15T02:03:08;16.80;99.90
4908;DHT22;64375;51.540;7.364;2024-02-15T02:05:40;16.80;99.90
4908;DHT22;64375;51.540;7.364;2024-02-15T02:08:09;16.80;99.90
4908;DHT22;64375;51.540;7.364;2024-02-15T02:10:40;16.80;99.90
4908;DHT22;64375;51.540;7.364;2024-02-15T02:13:09;16.80;99.90
4908;DHT22;64375;51.540;7.364;2024-02-15T02:15:41;16.80;99.90
4908;DHT22;64375;51.540;7.364;2024-02-15T02:18:09;16.90;99.90
4908;DHT22;64375;51.540;7.364;2024-02-15T02:20:39;16.90;99.90
4908;DHT22;64375;51.540;7.364;2024-02-15T02:23:13;16.90;99.90
4908;DHT22;64375;51.540;7.364;2024-02-15T02:25:42;16.80;99.90
4908;DHT22;64375;51.540;7.364;2024-02-15T02:28:38;16.80;99.90
4908;DHT22;64375;51.540;7.364;2024-02-15T02:31:12;16.80;99.90
4908;DHT22;64375;51.540;7.364;2024-02-15T02:33:41;16.80;99.90
4908;DHT22;64375;51.540;7.364;2024-02-15T02:36:09;16.80;99.90
4908;DHT22;64375;51.540;7.364;2024-02-15T02:38:38;16.80;99.90
4908;DHT22;64375;51.540;7.364;2024-02-15T02:41:24;16.70;99.90
4908;DHT22;64375;51.540;7.364;2024-02-15T02:43:55;16.60;99.90
4908;DHT22;64375;51.540;7.364;2024-02-15T02:46:26;16.50;99.90
4908;DHT22;64375;51.540;7.364;2024-02-15T02:48:54;16.40;99.90
4908;DHT22;64375;51.540;7.364;2024-02-15T02:51:29;16.40;99.90
4908;DHT22;64375;51.540;7.364;2024-02-15T02:53:57;16.30;99.90
4908;DHT22;64375;51.540;7.364;2024-02-15T02:56:27;16.20;99.90
4908;DHT22;64375;51.540;7.364;2024-02-15T02:58:55;16.20;99.90
4908;DHT22;64375;51.540;7.364;2024-02-15T03:01:23;16.10;99.90
4908;DHT22;64375;51.540;7.364;2024-02-15T03:04:07;16.10;99.90
4908;DHT22;64375;51.540;7.364;2024-02-15T03:06:39;16.00;99.90
4908;DHT22;64375;51.540;7.364;2024-02-15T03:09:12;16.00;99.90
4908;DHT22;64375;51.540;7.364;2024-02-15T03:11:51;15.90;99.90
4908;DHT22;64375;51.540;7.364;2024-02-15T03:14:25;15.80;99.90
4908;DHT22;64375;51.540;7.364;2024-02-15T03:16:55;15.70;99.90
4908;DHT22;64375;51.540;7.364;2024-02-15T03:19:40;15.70;99.90
4908;DHT22;64375;51.540;7.364;2024-02-15T03:22:11;15.90;99.90
4908;DHT22;64375;51.540;7.364;2024-02-15T03:24:43;15.90;99.90
4908;DHT22;64375;51.540;7.364;2024-02-15T03:27:12;16.00;99.90
4908;DHT22;64375;51.540;7.364;2024-02-15T03:29:49;16.10;99.90
4908;DHT22;64375;51.540;7.364;2024-02-15T03:32:18;16.10;99.90
4908;DHT22;64375;51.540;7.364;2024-02-15T03:34:52;16.10;99.90
4908;DHT22;64375;51.540;7.364;2024-02-15T03:37:23;16.20;99.90
4908;DHT22;64375;51.540;7.364;2024-02-15T03:39:53;16.20;99.90
4908;DHT22;64375;51.540;7.364;2024-02-15T03:42:26;16.20;99.90
4908;DHT22;64375;51.540;7.364;2024-02-15T03:44:57;16.20;99.90
4908;DHT22;64375;51.540;7.364;2024-02-15T03:47:25;16.30;99.90
4908;DHT22;64375;51.540;7.364;2024-02-15T03:49:58;16.20;99.90
4908;DHT22;64375;51.540;7.364;2024-02-15T03:52:26;16.20;99.90
4908;DHT22;64375;51.540;7.364;2024-02-15T03:54:56;16.10;99.90
4908;DHT22;64375;51.540;7.364;2024-02-15T03:57:33;15.90;99.90
4908;DHT22;64375;51.540;7.364;2024-02-15T04:00:01;15.90;99.90
4908;DHT22;64375;51.540;7.364;2024-02-15T04:02:37;15.80;99.90
4908;DHT22;64375;51.540;7.364;2024-02-15T04:05:07;15.80;99.90
4908;DHT22;64375;51.540;7.364;2024-02-15T04:07:38;15.70;99.90
4908;DHT22;64375;51.540;7.364;2024-02-15T04:10:07;15.60;99.90
4908;DHT22;64375;51.540;7.364;2024-02-15T04:12:49;15.60;99.90
4908;DHT22;64375;51.540;7.364;2024-02-15T04:15:17;15.60;99.90
4908;DHT22;64375;51.540;7.364;2024-02-15T04:17:45;15.60;99.90
4908;DHT22;64375;51.540;7.364;2024-02-15T04:20:14;15.60;99.90
4908;DHT22;64375;51.540;7.364;2024-02-15T04:22:44;15.60;99.90
4908;DHT22;64375;51.540;7.364;2024-02-15T04:25:26;15.60;99.90
4908;DHT22;64375;51.540;7.364;2024-02-15T04:27:56;15.60;99.90
4908;DHT22;64375;51.540;7.364;2024-02-15T04:30:30;15.60;99.90
4908;DHT22;64375;51.540;7.364;2024-02-15T04:32:58;15.60;99.90
4908;DHT22;64375;51.540;7.364;2024-02-15T04:35:29;15.60;99.90
4908;DHT22;64375;51.540;7.364;2024-02-15T04:37:58;15.60;99.90
4908;DHT22;64375;51.540;7.364;2024-02-15T04:40:29;15.60;99.90
4908;DHT22;64375;51.540;7.364;2024-02-15T04:43:08;15.60;99.90
4908;DHT22;64375;51.540;7.364;2024-02-15T04:45:36;15.60;99.90
4908;DHT22;64375;51.540;7.364;2024-02-15T04:48:10;15.70;99.90
4908;DHT22;64375;51.540;7.364;2024-02-15T04:50:40;15.70;99.90
4908;DHT22;64375;51.540;7.364;2024-02-15T04:53:12;15.80;99.90
4908;DHT22;64375;51.540;7.364;2024-02-15T04:55:40;15.90;99.90
4908;DHT22;64375;51.540;7.364;2024-02-15T04:58:21;16.00;99.90
4908;DHT22;64375;51.540;7.364;2024-02-15T05:00:49;16.10;99.90
4908;DHT22;64375;51.540;7.364;2024-02-15T05:03:35;16.10;99.90
4908;DHT22;64375;51.540;7.364;2024-02-15T05:06:03;16.10;99.90
4908;DHT22;64375;51.540;7.364;2024-02-15T05:08:38;16.10;99.90
4908;DHT22;64375;51.540;7.364;2024-02-15T05:11:13;16.00;99.90
4908;DHT22;64375;51.540;7.364;2024-02-15T05:13:51;15.90;99.90
4908;DHT22;64375;51.540;7.364;2024-02-15T05:16:19;15.80;99.90
4908;DHT22;64375;51.540;7.364;2024-02-15T05:18:47;15.70;99.90
4908;DHT22;64375;51.540;7.364;2024-02-15T05:21:30;15.70;99.90
4908;DHT22;64375;51.540;7.364;2024-02-15T05:24:01;15.70;99.90
4908;DHT22;64375;51.540;7.364;2024-02-15T05:26:32;15.60;99.90
4908;DHT22;64375;51.540;7.364;2024-02-15T05:29:01;15.60;99.90
4908;DHT22;64375;51.540;7.364;2024-02-15T05:31:31;15.60;99.90
4908;DHT22;64375;51.540;7.364;2024-02-15T05:34:11;15.60;99.90
4908;DHT22;64375;51.540;7.364;2024-02-15T05:36:42;15.50;99.90
4908;DHT22;64375;51.540;7.364;2024-02-15T05:39:13;15.60;99.90
4908;DHT22;64375;51.540;7.364;2024-02-15T05:41:41;15.50;99.90
4908;DHT22;64375;51.540;7.364;2024-02-15T05:44:19;15.50;99.90
4908;DHT22;64375;51.540;7.364;2024-02-15T05:46:55;15.40;99.90
4908;DHT22;64375;51.540;7.364;2024-02-15T05:49:26;15.50;99.90
4908;DHT22;64375;51.540;7.364;2024-02-15T05:51:57;15.50;99.90
4908;DHT22;64375;51.540;7.364;2024-02-15T05:54:32;15.60;99.90
4908;DHT22;64375;51.540;7.364;2024-02-15T05:57:27;15.60;99.90
4908;DHT22;64375;51.540;7.364;2024-02-15T05:59:57;15.80;99.90
4908;DHT22;64375;51.540;7.364;2024-02-15T06:02:33;15.80;99.90
4908;DHT22;64375;51.540;7.364;2024-02-15T06:05:12;15.90;99.90
4908;DHT22;64375;51.540;7.364;2024-02-15T06:07:49;16.10;99.90
4908;DHT22;64375;51.540;7.364;2024-02-15T06:10:29;16.10;99.90
4908;DHT22;64375;51.540;7.364;2024-02-15T06:12:57;16.20;99.90
4908;DHT22;64375;51.540;7.364;2024-02-15T06:15:35;16.20;99.90
4908;DHT22;64375;51.540;7.364;2024-02-15T06:18:04;16.30;99.90
4908;DHT22;64375;51.540;7.364;2024-02-15T06:20:41;16.50;99.90
4908;DHT22;64375;51.540;7.364;2024-02-15T06:23:12;16.60;99.90
4908;DHT22;64375;51.540;7.364;2024-02-15T06:25:50;16.70;99.90
4908;DHT22;64375;51.540;7.364;2024-02-15T06:28:35;16.90;99.90
4908;DHT22;64375;51.540;7.364;2024-02-15T06:31:26;16.90;99.90
4908;DHT22;64375;51.540;7.364;2024-02-15T06:34:15;17.10;99.90
4908;DHT22;64375;51.540;7.364;2024-02-15T06:36:57;17.20;99.90
4908;DHT22;64375;51.540;7.364;2024-02-15T06:39:45;17.00;99.90
4908;DHT22;64375;51.540;7.364;2024-02-15T06:42:16;16.90;99.90
4908;DHT22;64375;51.540;7.364;2024-02-15T06:44:48;16.80;99.90
4908;DHT22;64375;51.540;7.364;2024-02-15T06:47:48;16.90;99.90
4908;DHT22;64375;51.540;7.364;2024-02-15T06:50:16;16.80;99.90
4908;DHT22;64375;51.540;7.364;2024-02-15T06:52:50;16.90;99.90
4908;DHT22;64375;51.540;7.364;2024-02-15T06:55:21;16.90;99.90
4908;DHT22;64375;51.540;7.364;2024-02-15T06:57:50;17.00;99.90
4908;DHT22;64375;51.540;7.364;2024-02-15T07:00:18;17.00;99.90
4908;DHT22;64375;51.540;7.364;2024-02-15T07:02:57;17.10;99.90
4908;DHT22;64375;51.540;7.364;2024-02-15T07:05:25;17.10;99.90
4908;DHT22;64375;51.540;7.364;2024-02-15T07:07:57;17.10;99.90
4908;DHT22;64375;51.540;7.364;2024-02-15T07:10:26;17.10;99.90
4908;DHT22;64375;51.540;7.364;2024-02-15T07:12:56;17.10;99.90
4908;DHT22;64375;51.540;7.364;2024-02-15T07:15:24;17.00;99.90
4908;DHT22;64375;51.540;7.364;2024-02-15T07:17:56;16.90;99.90
4908;DHT22;64375;51.540;7.364;2024-02-15T07:20:30;16.80;99.90
4908;DHT22;64375;51.540;7.364;2024-02-15T07:23:02;16.80;99.90
4908;DHT22;64375;51.540;7.364;2024-02-15T07:25:33;16.80;99.90
4908;DHT22;64375;51.540;7.364;2024-02-15T07:28:01;16.70;99.90
4908;DHT22;64375;51.540;7.364;2024-02-15T07:30:29;16.60;99.90
4908;DHT22;64375;51.540;7.364;2024-02-15T07:32:59;16.60;99.90
4908;DHT22;64375;51.540;7.364;2024-02-15T07:35:30;16.50;99.90
4908;DHT22;64375;51.540;7.364;2024-02-15T07:38:00;16.50;99.90
4908;DHT22;64375;51.540;7.364;2024-02-15T07:40:34;16.40;99.90
4908;DHT22;64375;51.540;7.364;2024-02-15T07:43:10;16.40;99.90
4908;DHT22;64375;51.540;7.364;2024-02-15T07:45:39;16.30;99.90
4908;DHT22;64375;51.540;7.364;2024-02-15T07:48:08;16.30;99.90
4908;DHT22;64375;51.540;7.364;2024-02-15T07:50:36;16.30;99.90
4908;DHT22;64375;51.540;7.364;2024-02-15T07:53:09;16.30;99.90
4908;DHT22;64375;51.540;7.364;2024-02-15T07:55:38;16.20;99.90
4908;DHT22;64375;51.540;7.364;2024-02-15T07:58:09;16.20;99.90
4908;DHT22;64375;51.540;7.364;2024-02-15T08:00:37;16.20;99.90
4908;DHT22;64375;51.540;7.364;2024-02-15T08:03:05;16.20;99.90
4908;DHT22;64375;51.540;7.364;2024-02-15T08:05:35;16.20;99.90
4908;DHT22;64375;51.540;7.364;2024-02-15T08:08:05;16.20;99.90
4908;DHT22;64375;51.540;7.364;2024-02-15T08:10:33;16.30;99.90
4908;DHT22;64375;51.540;7.364;2024-02-15T08:13:01;16.50;99.90
4908;DHT22;64375;51.540;7.364;2024-02-15T08:15:29;16.70;99.90
4908;DHT22;64375;51.540;7.364;2024-02-15T08:18:00;16.80;99.90
4908;DHT22;64375;51.540;7.364;2024-02-15T08:20:32;17.00;99.90
4908;DHT22;64375;51.540;7.364;2024-02-15T08:23:02;17.10;99.90
4908;DHT22;64375;51.540;7.364;2024-02-15T08:25:30;17.20;99.90
4908;DHT22;64375;51.540;7.364;2024-02-15T08:28:01;17.10;99.90
4908;DHT22;64375;51.540;7.364;2024-02-15T08:30:36;17.20;99.90
4908;DHT22;64375;51.540;7.364;2024-02-15T08:33:08;17.20;99.90
4908;DHT22;64375;51.540;7.364;2024-02-15T08:35:40;17.20;99.90
4908;DHT22;64375;51.540;7.364;2024-02-15T08:38:10;17.20;99.90
4908;DHT22;64375;51.540;7.364;2024-02-15T08:40:38;17.30;99.90
4908;DHT22;64375;51.540;7.364;2024-02-15T08:43:11;17.30;99.90
4908;DHT22;64375;51.540;7.364;2024-02-15T08:45:39;17.40;99.90
4908;DHT22;64375;51.540;7.364;2024-02-15T08:48:11;17.40;99.90
4908;DHT22;64375;51.540;7.364;2024-02-15T08:50:41;17.50;99.90
4908;DHT22;64375;51.540;7.364;2024-02-15T08:53:16;17.50;99.90
4908;DHT22;64375;51.540;7.364;2024-02-15T08:55:45;17.50;99.90
4908;DHT22;64375;51.540;7.364;2024-02-15T08:58:13;17.40;99.90
4908;DHT22;64375;51.540;7.364;2024-02-15T09:00:44;17.40;99.90
4908;DHT22;64375;51.540;7.364;2024-02-15T09:03:15;17.40;99.90
4908;DHT22;64375;51.540;7.364;2024-02-15T09:05:43;17.40;99.90
4908;DHT22;64375;51.540;7.364;2024-02-15T09:08:12;17.50;99.90
4908;DHT22;64375;51.540;7.364;2024-02-15T09:10:42;17.50;99.90
4908;DHT22;64375;51.540;7.364;2024-02-15T09:13:19;17.50;99.90
4908;DHT22;64375;51.540;7.364;2024-02-15T09:15:47;17.50;99.90
4908;DHT22;64375;51.540;7.364;2024-02-15T09:18:15;17.50;99.90
4908;DHT22;64375;51.540;7.364;2024-02-15T09:20:46;17.40;99.90
4908;DHT22;64375;51.540;7.364;2024-02-15T09:23:17;17.50;99.90
4908;DHT22;64375;51.540;7.364;2024-02-15T09:25:45;17.50;99.90
4908;DHT22;64375;51.540;7.364;2024-02-15T09:28:19;17.50;99.90
4908;DHT22;64375;51.540;7.364;2024-02-15T09:30:49;17.60;99.90
4908;DHT22;64375;51.540;7.364;2024-02-15T09:33:19;17.70;99.90
4908;DHT22;64375;51.540;7.364;2024-02-15T09:35:47;17.60;99.90
4908;DHT22;64375;51.540;7.364;2024-02-15T09:38:16;17.60;99.90
4908;DHT22;64375;51.540;7.364;2024-02-15T09:40:48;17.70;99.90
4908;DHT22;64375;51.540;7.364;2024-02-15T09:43:17;17.60;99.90
4908;DHT22;64375;51.540;7.364;2024-02-15T09:45:49;17.80;99.90
4908;DHT22;64375;51.540;7.364;2024-02-15T09:48:17;17.70;99.90
4908;DHT22;64375;51.540;7.364;2024-02-15T09:50:45;17.60;99.90
4908;DHT22;64375;51.540;7.364;2024-02-15T09:53:20;17.60;99.90
4908;DHT22;64375;51.540;7.364;2024-02-15T09:55:52;17.50;99.90
4908;DHT22;64375;51.540;7.364;2024-02-15T09:58:23;17.40;99.90
4908;DHT22;64375;51.540;7.364;2024-02-15T10:00:51;17.50;99.90
4908;DHT22;64375;51.540;7.364;2024-02-15T10:03:19;17.50;99.90
4908;DHT22;64375;51.540;7.364;2024-02-15T10:05:49;17.60;99.90
4908;DHT22;64375;51.540;7.364;2024-02-15T10:08:19;17.50;99.90
4908;DHT22;64375;51.540;7.364;2024-02-15T10:10:50;17.50;99.90
4908;DHT22;64375;51.540;7.364;2024-02-15T10:13:43;17.40;99.90
4908;DHT22;64375;51.540;7.364;2024-02-15T10:16:16;17.50;99.90
4908;DHT22;64375;51.540;7.364;2024-02-15T10:18:45;17.60;99.90
4908;DHT22;64375;51.540;7.364;2024-02-15T10:21:25;17.70;99.90
4908;DHT22;64375;51.540;7.364;2024-02-15T10:24:06;17.70;99.90
4908;DHT22;64375;51.540;7.364;2024-02-15T10:26:35;17.60;99.90
4908;DHT22;64375;51.540;7.364;2024-02-15T10:29:08;17.60;99.90
4908;DHT22;64375;51.540;7.364;2024-02-15T10:31:38;17.60;99.90
4908;DHT22;64375;51.540;7.364;2024-02-15T10:34:08;17.60;99.90
4908;DHT22;64375;51.540;7.364;2024-02-15T10:36:37;17.70;99.90
4908;DHT22;64375;51.540;7.364;2024-02-15T10:39:12;17.80;99.90
4908;DHT22;64375;51.540;7.364;2024-02-15T10:41:45;17.80;99.90
4908;DHT22;64375;51.540;7.364;2024-02-15T10:44:18;17.80;99.90
4908;DHT22;64375;51.540;7.364;2024-02-15T10:46:47;17.70;99.90
4908;DHT22;64375;51.540;7.364;2024-02-15T10:49:35;17.70;99.90
4908;DHT22;64375;51.540;7.364;2024-02-15T10:52:04;17.80;99.90
4908;DHT22;64375;51.540;7.364;2024-02-15T10:54:56;17.80;99.90
4908;DHT22;64375;51.540;7.364;2024-02-15T10:57:33;17.80;99.90
4908;DHT22;64375;51.540;7.364;2024-02-15T11:00:06;17.80;99.90
4908;DHT22;64375;51.540;7.364;2024-02-15T11:02:45;17.70;99.90
4908;DHT22;64375;51.540;7.364;2024-02-15T11:05:37;17.90;99.90
4908;DHT22;64375;51.540;7.364;2024-02-15T11:08:08;17.80;99.90
4908;DHT22;64375;51.540;7.364;2024-02-15T11:10:43;17.80;99.90
4908;DHT22;64375;51.540;7.364;2024-02-15T11:13:14;17.80;99.90
4908;DHT22;64375;51.540;7.364;2024-02-15T11:15:46;17.80;99.90
4908;DHT22;64375;51.540;7.364;2024-02-15T11:18:45;17.80;99.90
4908;DHT22;64375;51.540;7.364;2024-02-15T11:21:16;17.90;99.90
4908;DHT22;64375;51.540;7.364;2024-02-15T11:23:45;17.90;99.90
4908;DHT22;64375;51.540;7.364;2024-02-15T11:26:45;17.90;99.90
4908;DHT22;64375;51.540;7.364;2024-02-15T11:29:48;17.60;99.90
4908;DHT22;64375;51.540;7.364;2024-02-15T11:32:37;17.50;99.90
4908;DHT22;64375;51.540;7.364;2024-02-15T11:35:13;17.60;99.90
4908;DHT22;64375;51.540;7.364;2024-02-15T11:37:57;17.60;99.90
4908;DHT22;64375;51.540;7.364;2024-02-15T11:41:04;17.60;99.90
4908;DHT22;64375;51.540;7.364;2024-02-15T11:43:48;17.70;99.90
4908;DHT22;64375;51.540;7.364;2024-02-15T11:46:24;17.70;99.90
4908;DHT22;64375;51.540;7.364;2024-02-15T11:48:56;17.70;99.90
4908;DHT22;64375;51.540;7.364;2024-02-15T11:51:30;17.80;99.90
4908;DHT22;64375;51.540;7.364;2024-02-15T11:54:12;17.80;99.90
4908;DHT22;64375;51.540;7.364;2024-02-15T11:56:56;17.70;99.90
4908;DHT22;64375;51.540;7.364;2024-02-15T11:59:55;17.80;99.90
4908;DHT22;64375;51.540;7.364;2024-02-15T12:02:40;17.80;99.90
4908;DHT22;64375;51.540;7.364;2024-02-15T12:05:25;17.80;99.90
4908;DHT22;64375;51.540;7.364;2024-02-15T12:08:11;17.80;99.90
4908;DHT22;64375;51.540;7.364;2024-02-15T12:11:02;17.80;99.90
4908;DHT22;64375;51.540;7.364;2024-02-15T12:13:50;17.80;99.90
4908;DHT22;64375;51.540;7.364;2024-02-15T12:16:43;17.60;99.90
4908;DHT22;64375;51.540;7.364;2024-02-15T12:19:35;17.70;99.90
4908;DHT22;64375;51.540;7.364;2024-02-15T12:22:06;17.70;99.90
4908;DHT22;64375;51.540;7.364;2024-02-15T12:24:35;17.70;99.90
4908;DHT22;64375;51.540;7.364;2024-02-15T12:27:06;17.70;99.90
4908;DHT22;64375;51.540;7.364;2024-02-15T12:29:37;17.80;99.90
4908;DHT22;64375;51.540;7.364;2024-02-15T12:32:06;17.80;99.90
4908;DHT22;64375;51.540;7.364;2024-02-15T12:34:34;17.80;99.90
4908;DHT22;64375;51.540;7.364;2024-02-15T12:37:05;17.80;99.90
4908;DHT22;64375;51.540;7.364;2024-02-15T12:39:35;17.90;99.90
4908;DHT22;64375;51.540;7.364;2024-02-15T12:42:06;17.90;99.90
4908;DHT22;64375;51.540;7.364;2024-02-15T12:44:36;18.00;99.90
4908;DHT22;64375;51.540;7.364;2024-02-15T12:47:05;17.90;99.90
4908;DHT22;64375;51.540;7.364;2024-02-15T12:49:33;17.70;99.90
4908;DHT22;64375;51.540;7.364;2024-02-15T12:52:38;17.90;99.90
4908;DHT22;64375;51.540;7.364;2024-02-15T12:55:11;17.90;99.90
4908;DHT22;64375;51.540;7.364;2024-02-15T12:57:40;18.00;99.90
4908;DHT22;64375;51.540;7.364;2024-02-15T13:00:18;18.00;99.90
4908;DHT22;64375;51.540;7.364;2024-02-15T13:02:53;18.00;99.90
4908;DHT22;64375;51.540;7.364;2024-02-15T13:05:24;17.90;99.90
4908;DHT22;64375;51.540;7.364;2024-02-15T13:07:53;17.90;99.90
4908;DHT22;64375;51.540;7.364;2024-02-15T13:10:29;18.10;99.90
4908;DHT22;64375;51.540;7.364;2024-02-15T13:12:58;18.10;99.90
4908;DHT22;64375;51.540;7.364;2024-02-15T13:15:26;18.10;99.90
4908;DHT22;64375;51.540;7.364;2024-02-15T13:18:01;18.20;99.90
4908;DHT22;64375;51.540;7.364;2024-02-15T13:20:31;18.20;99.90
4908;DHT22;64375;51.540;7.364;2024-02-15T13:23:09;18.20;99.90
4908;DHT22;64375;51.540;7.364;2024-02-15T13:25:49;18.20;99.90
4908;DHT22;64375;51.540;7.364;2024-02-15T13:28:20;18.20;99.90
4908;DHT22;64375;51.540;7.364;2024-02-15T13:30:48;18.20;99.90
4908;DHT22;64375;51.540;7.364;2024-02-15T13:33:18;18.30;99.90
4908;DHT22;64375;51.540;7.364;2024-02-15T13:35:47;18.10;99.90
4908;DHT22;64375;51.540;7.364;2024-02-15T13:38:28;18.20;99.90
4908;DHT22;64375;51.540;7.364;2024-02-15T13:41:00;18.20;99.90
4908;DHT22;64375;51.540;7.364;2024-02-15T13:43:29;18.10;99.90
4908;DHT22;64375;51.540;7.364;2024-02-15T13:46:01;18.10;99.90
4908;DHT22;64375;51.540;7.364;2024-02-15T13:48:38;18.10;99.90
4908;DHT22;64375;51.540;7.364;2024-02-15T13:51:06;18.10;99.90
4908;DHT22;64375;51.540;7.364;2024-02-15T13:53:39;18.00;99.90
4908;DHT22;64375;51.540;7.364;2024-02-15T13:56:07;18.00;99.90
4908;DHT22;64375;51.540;7.364;2024-02-15T13:58:36;18.00;99.90
4908;DHT22;64375;51.540;7.364;2024-02-15T14:01:04;18.00;99.90
4908;DHT22;64375;51.540;7.364;2024-02-15T14:03:37;18.20;99.90
4908;DHT22;64375;51.540;7.364;2024-02-15T14:06:05;18.20;99.90
4908;DHT22;64375;51.540;7.364;2024-02-15T14:08:36;18.20;99.90
4908;DHT22;64375;51.540;7.364;2024-02-15T14:11:04;18.20;99.90
4908;DHT22;64375;51.540;7.364;2024-02-15T14:13:32;18.10;99.90
4908;DHT22;64375;51.540;7.364;2024-02-15T14:16:00;18.00;99.90
4908;DHT22;64375;51.540;7.364;2024-02-15T14:18:29;18.00;99.90
4908;DHT22;64375;51.540;7.364;2024-02-15T14:21:02;18.10;99.90
4908;DHT22;64375;51.540;7.364;2024-02-15T14:23:33;18.20;99.90
4908;DHT22;64375;51.540;7.364;2024-02-15T14:26:02;18.10;99.90
4908;DHT22;64375;51.540;7.364;2024-02-15T14:28:31;18.20;99.90
4908;DHT22;64375;51.540;7.364;2024-02-15T14:30:59;18.20;99.90
4908;DHT22;64375;51.540;7.364;2024-02-15T14:33:44;18.10;99.90
4908;DHT22;64375;51.540;7.364;2024-02-15T14:36:14;18.20;99.90
4908;DHT22;64375;51.540;7.364;2024-02-15T14:38:45;18.30;99.90
4908;DHT22;64375;51.540;7.364;2024-02-15T14:41:16;18.20;99.90
4908;DHT22;64375;51.540;7.364;2024-02-15T14:43:58;18.20;99.90
4908;DHT22;64375;51.540;7.364;2024-02-15T14:46:26;18.30;99.90
4908;DHT22;64375;51.540;7.364;2024-02-15T14:49:00;18.20;99.90
4908;DHT22;64375;51.540;7.364;2024-02-15T14:51:29;18.30;99.90
4908;DHT22;64375;51.540;7.364;2024-02-15T14:53:59;18.30;99.90
4908;DHT22;64375;51.540;7.364;2024-02-15T14:56:30;18.30;99.90
4908;DHT22;64375;51.540;7.364;2024-02-15T14:59:04;18.30;99.90
4908;DHT22;64375;51.540;7.364;2024-02-15T15:01:35;18.40;99.90
4908;DHT22;64375;51.540;7.364;2024-02-15T15:04:04;18.30;99.90
4908;DHT22;64375;51.540;7.364;2024-02-15T15:06:34;18.20;99.90
4908;DHT22;64375;51.540;7.364;2024-02-15T15:09:20;18.10;99.90
4908;DHT22;64375;51.540;7.364;2024-02-15T15:12:06;17.90;99.90
4908;DHT22;64375;51.540;7.364;2024-02-15T15:14:51;17.80;99.90
4908;DHT22;64375;51.540;7.364;2024-02-15T15:17:22;17.80;99.90
4908;DHT22;64375;51.540;7.364;2024-02-15T15:19:52;17.80;99.90
4908;DHT22;64375;51.540;7.364;2024-02-15T15:22:22;17.90;99.90
4908;DHT22;64375;51.540;7.364;2024-02-15T15:24:50;17.90;99.90
4908;DHT22;64375;51.540;7.364;2024-02-15T15:27:20;17.90;99.90
4908;DHT22;64375;51.540;7.364;2024-02-15T15:29:50;17.80;99.90
4908;DHT22;64375;51.540;7.364;2024-02-15T15:32:18;17.80;99.90
4908;DHT22;64375;51.540;7.364;2024-02-15T15:34:49;17.70;99.90
4908;DHT22;64375;51.540;7.364;2024-02-15T15:37:17;17.70;99.90
4908;DHT22;64375;51.540;7.364;2024-02-15T15:39:58;17.70;99.90
4908;DHT22;64375;51.540;7.364;2024-02-15T15:42:26;17.70;99.90
4908;DHT22;64375;51.540;7.364;2024-02-15T15:45:00;17.80;99.90
4908;DHT22;64375;51.540;7.364;2024-02-15T15:47:33;17.80;99.90
4908;DHT22;64375;51.540;7.364;2024-02-15T15:50:02;17.80;99.90
4908;DHT22;64375;51.540;7.364;2024-02-15T15:52:36;17.80;99.90
4908;DHT22;64375;51.540;7.364;2024-02-15T15:55:08;17.80;99.90
4908;DHT22;64375;51.540;7.364;2024-02-15T15:57:38;17.90;99.90
4908;DHT22;64375;51.540;7.364;2024-02-15T16:00:07;17.80;99.90
4908;DHT22;64375;51.540;7.364;2024-02-15T16:02:39;17.80;99.90
4908;DHT22;64375;51.540;7.364;2024-02-15T16:05:09;17.80;99.90
4908;DHT22;64375;51.540;7.364;2024-02-15T16:07:38;17.80;99.90
4908;DHT22;64375;51.540;7.364;2024-02-15T16:10:09;17.70;99.90
4908;DHT22;64375;51.540;7.364;2024-02-15T16:12:38;17.60;99.90
4908;DHT22;64375;51.540;7.364;2024-02-15T16:15:07;17.50;99.90
4908;DHT22;64375;51.540;7.364;2024-02-15T16:17:36;17.50;99.90
4908;DHT22;64375;51.540;7.364;2024-02-15T16:20:15;17.40;99.90
4908;DHT22;64375;51.540;7.364;2024-02-15T16:22:46;17.30;99.90